createdAt,value
2022-12-03T00:00:36.676Z,15.35
2022-12-03T00:03:03.605Z,17.23
2022-12-03T00:05:30.787Z,16.67
2022-12-03T00:07:57.695Z,15.63
2022-12-03T00:10:24.558Z,18.90
2022-12-03T00:12:51.351Z,18.90
2022-12-03T00:15:18.133Z,12.95
2022-12-03T00:17:44.926Z,14.23
2022-12-03T00:20:17.190Z,15.95
2022-12-03T00:22:43.946Z,13.25
2022-12-03T00:25:10.678Z,17.25
2022-12-03T00:27:37.384Z,12.70
2022-12-03T00:30:05.040Z,16.52
2022-12-03T00:32:31.824Z,17.92
2022-12-03T00:34:58.577Z,14.25
2022-12-03T00:37:25.290Z,14.32
2022-12-03T00:39:52.002Z,14.00
2022-12-03T00:42:18.741Z,12.95
2022-12-03T00:44:45.427Z,10.98
2022-12-03T00:47:12.840Z,14.85
2022-12-03T00:49:39.718Z,15.32
2022-12-03T00:52:06.468Z,14.65
2022-12-03T00:54:33.266Z,14.05
2022-12-03T00:57:00.108Z,17.92
2022-12-03T00:59:26.819Z,13.82
2022-12-03T01:01:53.585Z,10.60
2022-12-03T01:04:20.510Z,20.27
2022-12-03T01:06:47.208Z,15.13
2022-12-03T01:09:13.943Z,14.45
2022-12-03T01:11:41.479Z,14.80
2022-12-03T01:14:12.815Z,14.32
2022-12-03T01:16:39.811Z,16.40
2022-12-03T01:19:06.785Z,18.17
2022-12-03T01:21:33.558Z,16.17
2022-12-03T01:24:00.304Z,20.63
2022-12-03T01:26:27.045Z,18.83
2022-12-03T01:28:53.761Z,22.52
2022-12-03T01:31:39.168Z,16.83
2022-12-03T01:34:06.204Z,21.77
2022-12-03T01:36:34.305Z,18.77
2022-12-03T01:39:02.035Z,22.63
2022-12-03T01:41:28.731Z,18.75
2022-12-03T01:43:55.630Z,19.10
2022-12-03T01:46:27.556Z,23.05
2022-12-03T01:48:54.549Z,17.10
2022-12-03T01:51:21.333Z,20.17
2022-12-03T01:53:48.113Z,18.15
2022-12-03T01:56:18.014Z,18.45
2022-12-03T01:58:44.988Z,21.58
2022-12-03T02:01:14.434Z,20.10
2022-12-03T02:03:41.287Z,16.52
2022-12-03T02:06:16.560Z,18.58
2022-12-03T02:08:43.346Z,18.13
2022-12-03T02:11:25.222Z,15.98
2022-12-03T02:13:53.410Z,18.67
2022-12-03T02:16:20.228Z,15.77
2022-12-03T02:18:47.041Z,25.75
2022-12-03T02:21:24.838Z,17.23
2022-12-03T02:23:59.125Z,19.52
2022-12-03T02:26:25.842Z,22.23
2022-12-03T02:28:52.577Z,18.87
2022-12-03T02:31:19.396Z,17.40
2022-12-03T02:33:46.188Z,17.25
2022-12-03T02:36:12.990Z,20.98
2022-12-03T02:38:39.717Z,20.55
2022-12-03T02:41:08.545Z,19.30
2022-12-03T02:43:35.374Z,22.60
2022-12-03T02:46:02.511Z,17.17
2022-12-03T02:48:32.061Z,30.42
2022-12-03T02:51:00.780Z,23.27
2022-12-03T02:53:29.025Z,14.80
2022-12-03T02:55:57.989Z,20.92
2022-12-03T02:58:24.710Z,18.85
2022-12-03T03:00:51.933Z,19.77
2022-12-03T03:03:18.730Z,19.45
2022-12-03T03:05:45.425Z,18.88
2022-12-03T03:08:12.273Z,15.30
2022-12-03T03:10:39.637Z,25.33
2022-12-03T03:13:11.853Z,18.52
2022-12-03T03:15:39.139Z,17.33
2022-12-03T03:18:06.264Z,18.13
2022-12-03T03:20:33.011Z,12.77
2022-12-03T03:23:11.765Z,13.77
2022-12-03T03:25:39.412Z,16.90
2022-12-03T03:28:06.352Z,18.17
2022-12-03T03:30:33.425Z,16.90
2022-12-03T03:33:00.159Z,18.85
2022-12-03T03:35:26.915Z,23.70
2022-12-03T03:37:56.495Z,13.70
2022-12-03T03:40:23.253Z,14.75
2022-12-03T03:42:50.001Z,16.75
2022-12-03T03:45:16.757Z,15.85
2022-12-03T03:47:43.478Z,15.32
2022-12-03T03:50:11.067Z,13.65
2022-12-03T03:52:37.860Z,14.30
2022-12-03T03:55:05.085Z,16.35
2022-12-03T03:57:31.929Z,19.58
2022-12-03T03:59:59.322Z,15.02
2022-12-03T04:02:26.817Z,18.15
2022-12-03T04:04:53.762Z,17.95
2022-12-03T04:07:20.673Z,15.43
2022-12-03T04:09:47.327Z,12.70
2022-12-03T04:12:32.573Z,19.13
2022-12-03T04:14:59.499Z,21.10
2022-12-03T04:17:26.226Z,15.65
2022-12-03T04:19:52.990Z,28.55
2022-12-03T04:22:38.177Z,23.25
2022-12-03T04:25:24.150Z,19.05
2022-12-03T04:28:09.483Z,23.65
2022-12-03T04:30:36.287Z,17.85
2022-12-03T04:33:21.709Z,17.23
2022-12-03T04:35:48.519Z,20.10
2022-12-03T04:38:16.099Z,16.25
2022-12-03T04:41:01.183Z,15.15
2022-12-03T04:43:28.533Z,16.65
2022-12-03T04:45:55.345Z,16.50
2022-12-03T04:48:22.137Z,15.90
2022-12-03T04:50:48.900Z,21.67
2022-12-03T04:53:15.688Z,20.55
2022-12-03T04:55:42.405Z,18.55
2022-12-03T04:58:09.428Z,22.40
2022-12-03T05:00:36.133Z,21.17
2022-12-03T05:03:02.954Z,17.25
2022-12-03T05:05:29.800Z,23.20
2022-12-03T05:07:56.587Z,25.58
2022-12-03T05:10:23.344Z,24.42
2022-12-03T05:12:50.040Z,25.20
2022-12-03T05:15:16.857Z,25.98
2022-12-03T05:17:43.611Z,26.35
2022-12-03T05:20:29.162Z,27.75
2022-12-03T05:22:55.914Z,22.42
2022-12-03T05:25:22.630Z,28.08
2022-12-03T05:27:49.370Z,30.10
2022-12-03T05:30:16.338Z,25.08
2022-12-03T05:32:43.045Z,30.08
2022-12-03T05:35:10.367Z,31.40
2022-12-03T05:37:37.353Z,35.30
2022-12-03T05:40:04.457Z,26.73
2022-12-03T05:42:49.691Z,21.33
2022-12-03T05:45:16.528Z,23.75
2022-12-03T05:47:43.234Z,27.45
2022-12-03T05:50:10.113Z,24.98
2022-12-03T05:52:36.829Z,28.20
2022-12-03T05:55:03.854Z,19.98
2022-12-03T05:57:33.592Z,26.23
2022-12-03T06:00:00.298Z,20.00
2022-12-03T06:02:27.059Z,24.10
2022-12-03T06:04:54.190Z,23.95
2022-12-03T06:07:21.076Z,23.00
2022-12-03T06:09:47.821Z,19.15
2022-12-03T06:12:14.547Z,24.38
2022-12-03T06:14:41.263Z,19.73
2022-12-03T06:17:08.230Z,26.13
2022-12-03T06:19:34.988Z,21.63
2022-12-03T06:22:01.708Z,21.52
2022-12-03T06:24:28.575Z,19.30
2022-12-03T06:26:55.302Z,18.13
2022-12-03T06:29:22.003Z,19.08
2022-12-03T06:31:48.734Z,23.83
2022-12-03T06:34:15.485Z,24.52
2022-12-03T06:36:42.217Z,33.97
2022-12-03T06:39:08.980Z,16.58
2022-12-03T06:41:35.739Z,18.83
2022-12-03T06:44:02.519Z,18.35
2022-12-03T06:46:29.240Z,17.27
2022-12-03T06:48:55.992Z,17.23
2022-12-03T06:51:22.714Z,16.48
2022-12-03T06:53:49.453Z,17.90
2022-12-03T06:56:20.067Z,18.60
2022-12-03T06:58:48.694Z,15.50
2022-12-03T07:01:15.454Z,18.38
2022-12-03T07:03:42.202Z,20.98
2022-12-03T07:06:09.024Z,15.88
2022-12-03T07:08:35.730Z,20.73
2022-12-03T07:11:02.485Z,16.15
2022-12-03T07:13:35.542Z,25.20
2022-12-03T07:16:06.666Z,16.13
2022-12-03T07:18:40.767Z,21.08
2022-12-03T07:21:14.577Z,15.77
2022-12-03T07:23:41.325Z,15.70
2022-12-03T07:26:08.163Z,19.02
2022-12-03T07:28:34.939Z,18.75
2022-12-03T07:31:01.832Z,12.48
2022-12-03T07:33:28.620Z,16.10
2022-12-03T07:35:55.308Z,17.63
2022-12-03T07:38:22.010Z,20.70
2022-12-03T07:40:48.726Z,16.50
2022-12-03T07:43:15.506Z,20.00
2022-12-03T07:45:42.266Z,17.77
2022-12-03T07:48:08.996Z,11.88
2022-12-03T07:50:38.606Z,15.20
2022-12-03T07:53:05.392Z,17.77
2022-12-03T07:55:32.149Z,15.07
2022-12-03T07:57:58.853Z,17.70
2022-12-03T08:00:25.674Z,14.00
2022-12-03T08:02:52.541Z,21.85
2022-12-03T08:05:19.320Z,13.52
2022-12-03T08:07:46.097Z,14.35
2022-12-03T08:10:13.116Z,19.50
2022-12-03T08:12:45.605Z,17.83
2022-12-03T08:15:14.654Z,16.05
2022-12-03T08:17:42.396Z,17.58
2022-12-03T08:20:20.198Z,20.52
2022-12-03T08:22:49.126Z,12.35
2022-12-03T08:25:23.972Z,12.38
2022-12-03T08:28:00.562Z,15.68
2022-12-03T08:30:27.296Z,15.30
2022-12-03T08:32:54.031Z,13.13
2022-12-03T08:35:23.862Z,12.00
2022-12-03T08:37:55.773Z,15.90
2022-12-03T08:40:24.364Z,10.77
2022-12-03T08:42:51.157Z,11.80
2022-12-03T08:45:30.324Z,15.98
2022-12-03T08:48:01.849Z,15.73
2022-12-03T08:50:28.837Z,8.73
2022-12-03T08:52:59.579Z,13.60
2022-12-03T08:55:34.359Z,13.32
2022-12-03T08:58:01.282Z,10.65
2022-12-03T09:00:28.135Z,11.13
2022-12-03T09:02:55.540Z,13.77
2022-12-03T09:05:23.943Z,12.75
2022-12-03T09:07:51.075Z,10.68
2022-12-03T09:10:18.205Z,16.85
2022-12-03T09:12:44.969Z,13.25
2022-12-03T09:15:12.323Z,15.18
2022-12-03T09:17:39.227Z,15.60
2022-12-03T09:20:07.176Z,12.52
2022-12-03T09:22:35.672Z,12.43
2022-12-03T09:25:02.461Z,16.67
2022-12-03T09:27:29.261Z,15.52
2022-12-03T09:29:56.042Z,11.88
2022-12-03T09:32:22.968Z,13.98
2022-12-03T09:34:49.776Z,7.50
2022-12-03T09:37:16.615Z,14.85
2022-12-03T09:39:46.107Z,11.25
2022-12-03T09:42:12.837Z,13.52
2022-12-03T09:44:39.556Z,15.60
2022-12-03T09:47:06.367Z,8.90
2022-12-03T09:49:33.284Z,11.73
2022-12-03T09:52:01.528Z,11.88
2022-12-03T09:54:29.091Z,13.25
2022-12-03T09:56:57.077Z,14.77
2022-12-03T09:59:26.327Z,12.70
2022-12-03T10:01:56.232Z,10.27
2022-12-03T10:04:23.106Z,12.60
2022-12-03T10:06:50.061Z,12.68
2022-12-03T10:09:22.740Z,12.70
2022-12-03T10:11:49.474Z,11.90
2022-12-03T10:14:16.855Z,10.10
2022-12-03T10:16:43.780Z,9.98
2022-12-03T10:19:16.358Z,16.48
2022-12-03T10:21:43.118Z,12.43
2022-12-03T10:24:18.887Z,15.52
2022-12-03T10:26:46.445Z,11.75
2022-12-03T10:29:28.378Z,14.68
2022-12-03T10:32:00.571Z,7.65
2022-12-03T10:34:30.649Z,16.02
2022-12-03T10:37:16.141Z,11.20
2022-12-03T10:40:09.166Z,14.07
2022-12-03T10:42:37.599Z,10.55
2022-12-03T10:45:16.699Z,14.93
2022-12-03T10:47:44.319Z,9.48
2022-12-03T10:50:19.024Z,15.63
2022-12-03T10:52:46.598Z,8.77
2022-12-03T10:55:13.988Z,13.48
2022-12-03T10:57:45.287Z,13.02
2022-12-03T11:00:19.162Z,10.35
2022-12-03T11:02:53.073Z,13.73
2022-12-03T11:05:23.341Z,14.45
2022-12-03T11:07:50.154Z,8.57
2022-12-03T11:10:18.048Z,9.50
2022-12-03T11:13:23.697Z,10.75
2022-12-03T11:15:50.520Z,13.27
2022-12-03T11:18:36.522Z,12.10
2022-12-03T11:21:05.394Z,14.10
2022-12-03T11:23:47.427Z,16.52
2022-12-03T11:26:19.531Z,10.95
2022-12-03T11:28:46.592Z,11.18
2022-12-03T11:31:47.220Z,13.88
2022-12-03T11:34:23.021Z,14.90
2022-12-03T11:37:11.149Z,12.95
2022-12-03T11:39:50.485Z,9.52
2022-12-03T11:42:26.497Z,15.57
2022-12-03T11:45:05.703Z,11.82
2022-12-03T11:47:43.774Z,12.02
2022-12-03T11:50:38.994Z,13.50
2022-12-03T11:53:16.499Z,10.60
2022-12-03T11:56:11.231Z,15.27
2022-12-03T12:01:06.988Z,13.48
2022-12-03T12:03:36.192Z,16.67
2022-12-03T12:06:06.943Z,15.80
2022-12-03T12:08:34.929Z,15.35
2022-12-03T12:11:02.478Z,13.80
2022-12-03T12:13:32.080Z,14.85
2022-12-03T12:16:02.501Z,13.68
2022-12-03T12:18:55.034Z,12.18
2022-12-03T12:21:42.014Z,12.02
2022-12-03T12:24:30.874Z,19.45
2022-12-03T12:26:58.944Z,10.57
2022-12-03T12:29:25.791Z,16.83
2022-12-03T12:31:57.773Z,10.48
2022-12-03T12:34:25.578Z,12.25
2022-12-03T12:36:52.657Z,10.95
2022-12-03T12:39:19.455Z,17.27
2022-12-03T12:41:48.551Z,20.77
2022-12-03T12:44:15.285Z,14.05
2022-12-03T12:46:48.060Z,16.48
2022-12-03T12:49:15.425Z,14.10
2022-12-03T12:51:45.782Z,19.63
2022-12-03T12:54:14.463Z,11.15
2022-12-03T12:56:42.911Z,13.85
2022-12-03T12:59:12.022Z,17.88
2022-12-03T13:01:38.961Z,13.98
2022-12-03T13:04:16.431Z,15.50
2022-12-03T13:06:43.248Z,18.38
2022-12-03T13:09:17.976Z,21.80
2022-12-03T13:11:46.017Z,23.67
2022-12-03T13:14:23.295Z,21.90
2022-12-03T13:16:51.355Z,17.85
2022-12-03T13:19:28.890Z,21.20
2022-12-03T13:21:56.792Z,21.83
2022-12-03T13:24:35.556Z,16.50
2022-12-03T13:27:18.322Z,20.08
2022-12-03T13:29:56.087Z,20.45
2022-12-03T13:32:27.773Z,18.55
2022-12-03T13:35:03.714Z,22.35
2022-12-03T13:37:30.431Z,21.50
2022-12-03T13:39:57.921Z,19.80
2022-12-03T13:42:41.514Z,20.60
2022-12-03T13:45:14.899Z,17.42
2022-12-03T13:47:42.463Z,17.48
2022-12-03T13:50:28.826Z,26.25
2022-12-03T13:52:55.695Z,20.92
2022-12-03T13:55:27.160Z,21.30
2022-12-03T13:57:54.379Z,18.48
2022-12-03T14:00:21.194Z,20.58
2022-12-03T14:02:47.996Z,23.33
2022-12-03T14:05:14.938Z,24.52
2022-12-03T14:07:41.951Z,32.25
2022-12-03T14:10:09.660Z,17.85
2022-12-03T14:12:37.044Z,17.98
2022-12-03T14:15:04.881Z,23.60
2022-12-03T14:17:31.907Z,18.33
2022-12-03T14:20:01.027Z,22.38
2022-12-03T14:22:28.051Z,22.45
2022-12-03T14:24:54.793Z,21.33
2022-12-03T14:27:21.614Z,27.05
2022-12-03T14:29:48.373Z,28.05
2022-12-03T14:32:15.205Z,24.25
2022-12-03T14:34:42.183Z,18.40
2022-12-03T14:37:08.934Z,18.48
2022-12-03T14:39:35.684Z,21.42
2022-12-03T14:42:14.421Z,15.25
2022-12-03T14:44:45.277Z,20.75
2022-12-03T14:47:12.325Z,23.85
2022-12-03T14:49:39.272Z,24.08
2022-12-03T14:52:09.907Z,27.60
2022-12-03T14:54:44.701Z,19.48
2022-12-03T14:57:15.110Z,19.45
2022-12-03T14:59:42.503Z,22.27
2022-12-03T15:02:09.653Z,21.42
2022-12-03T15:04:36.798Z,19.75
2022-12-03T15:07:03.659Z,22.30
2022-12-03T15:09:30.433Z,16.80
2022-12-03T15:11:57.341Z,21.58
2022-12-03T15:14:24.156Z,21.42
2022-12-03T15:16:50.902Z,20.58
2022-12-03T15:19:17.823Z,19.80
2022-12-03T15:21:44.662Z,18.83
2022-12-03T15:24:11.522Z,23.85
2022-12-03T15:26:38.347Z,28.05
2022-12-03T15:29:05.107Z,23.45
2022-12-03T15:31:32.118Z,22.33
2022-12-03T15:33:59.015Z,22.63
2022-12-03T15:36:25.768Z,21.08
2022-12-03T15:38:52.552Z,19.48
2022-12-03T15:41:28.984Z,24.77
2022-12-03T15:43:59.871Z,24.42
2022-12-03T15:46:27.929Z,28.25
2022-12-03T15:48:55.413Z,23.88
2022-12-03T15:51:22.178Z,18.70
2022-12-03T15:53:48.929Z,22.13
2022-12-03T15:56:15.898Z,22.70
2022-12-03T15:58:42.717Z,20.00
2022-12-03T16:01:09.736Z,17.75
2022-12-03T16:03:36.833Z,21.23
2022-12-03T16:06:03.701Z,29.75
2022-12-03T16:08:30.471Z,25.25
2022-12-03T16:10:57.246Z,24.30
2022-12-03T16:13:23.997Z,18.33
2022-12-03T16:15:51.177Z,17.70
2022-12-03T16:18:18.011Z,22.85
2022-12-03T16:20:44.738Z,32.67
2022-12-03T16:23:11.490Z,25.13
2022-12-03T16:25:38.200Z,20.95
2022-12-03T16:28:04.981Z,30.35
2022-12-03T16:30:31.862Z,22.92
2022-12-03T16:32:58.762Z,22.15
2022-12-03T16:35:25.533Z,22.67
2022-12-03T16:37:52.259Z,21.75
2022-12-03T16:40:19.006Z,24.92
2022-12-03T16:42:45.801Z,26.27
2022-12-03T16:45:23.156Z,25.98
2022-12-03T16:47:50.302Z,29.25
2022-12-03T16:50:23.088Z,28.63
2022-12-03T16:52:54.253Z,25.27
2022-12-03T16:55:21.217Z,28.27
2022-12-03T16:57:48.008Z,29.70
2022-12-03T17:00:15.251Z,32.00
2022-12-03T17:02:42.070Z,31.15
2022-12-03T17:05:09.011Z,61.17
2022-12-03T17:07:37.913Z,42.83
2022-12-03T17:10:05.404Z,30.83
2022-12-03T17:12:54.156Z,35.05
2022-12-03T17:15:18.894Z,24.65
2022-12-03T17:17:45.572Z,30.67
2022-12-03T17:20:14.595Z,23.85
2022-12-03T17:22:41.710Z,23.00
2022-12-03T17:25:09.146Z,25.50
2022-12-03T17:27:38.676Z,21.98
2022-12-03T17:30:10.970Z,20.38
2022-12-03T17:32:37.833Z,23.13
2022-12-03T17:35:04.858Z,20.48
2022-12-03T17:37:31.589Z,19.80
2022-12-03T17:39:58.417Z,37.15
2022-12-03T17:42:25.237Z,24.20
2022-12-03T17:44:52.002Z,22.42
2022-12-03T17:47:18.775Z,23.85
2022-12-03T17:49:45.483Z,23.05
2022-12-03T17:52:12.328Z,26.25
2022-12-03T17:55:08.497Z,24.48
2022-12-03T17:57:26.566Z,23.20
2022-12-03T17:59:53.611Z,23.48
2022-12-03T18:02:20.658Z,22.63
2022-12-03T18:04:48.008Z,24.00
2022-12-03T18:07:15.298Z,22.85
2022-12-03T18:09:42.571Z,27.25
2022-12-03T18:12:09.391Z,28.27
2022-12-03T18:14:36.299Z,25.67
2022-12-03T18:17:03.367Z,18.60
2022-12-03T18:19:30.507Z,30.05
2022-12-03T18:21:57.275Z,19.63
2022-12-03T18:24:24.445Z,27.48
2022-12-03T18:26:51.167Z,25.15
2022-12-03T18:29:17.905Z,26.00
2022-12-03T18:31:45.352Z,31.58
2022-12-03T18:34:12.249Z,33.05
2022-12-03T18:36:39.063Z,26.50
2022-12-03T18:39:09.245Z,29.45
2022-12-03T18:41:36.670Z,27.50
2022-12-03T18:44:04.257Z,23.25
2022-12-03T18:46:52.555Z,26.92
2022-12-03T18:49:17.755Z,32.15
2022-12-03T18:51:44.818Z,30.83
2022-12-03T18:54:14.772Z,30.13
2022-12-03T18:56:41.502Z,28.00
2022-12-03T18:59:08.472Z,29.65
2022-12-03T19:01:35.262Z,28.25
2022-12-03T19:04:02.360Z,31.70
2022-12-03T19:06:30.601Z,24.52
2022-12-03T19:08:57.749Z,27.67
2022-12-03T19:11:24.583Z,31.25
2022-12-03T19:13:52.280Z,24.80
2022-12-03T19:16:19.247Z,30.08
2022-12-03T19:18:46.058Z,26.55
2022-12-03T19:21:14.870Z,24.45
2022-12-03T19:23:47.233Z,23.65
2022-12-03T19:26:26.979Z,28.52
2022-12-03T19:28:54.034Z,26.85
2022-12-03T19:31:21.267Z,25.45
2022-12-03T19:33:48.122Z,26.00
2022-12-03T19:36:33.083Z,25.17
2022-12-03T19:39:00.090Z,27.08
2022-12-03T19:41:28.152Z,27.30
2022-12-03T19:43:55.752Z,27.20
2022-12-03T19:46:23.374Z,28.40
2022-12-03T19:48:50.972Z,29.40
2022-12-03T19:51:33.662Z,26.90
2022-12-03T19:54:02.285Z,21.73
2022-12-03T19:56:30.628Z,27.15
2022-12-03T19:58:57.564Z,23.75
2022-12-03T20:01:26.215Z,30.50
2022-12-03T20:03:54.350Z,29.13
2022-12-03T20:06:25.266Z,23.98
2022-12-03T20:08:58.418Z,25.60
2022-12-03T20:11:29.877Z,27.40
2022-12-03T20:13:58.372Z,30.35
2022-12-03T20:16:25.845Z,25.92
2022-12-03T20:18:56.253Z,24.35
2022-12-03T20:21:23.174Z,31.98
2022-12-03T20:23:49.897Z,20.10
2022-12-03T20:26:17.871Z,24.05
2022-12-03T20:28:44.953Z,19.00
2022-12-03T20:31:13.668Z,22.15
2022-12-03T20:33:41.897Z,24.83
2022-12-03T20:36:09.279Z,23.90
2022-12-03T20:38:36.986Z,25.70
2022-12-03T20:41:08.459Z,23.70
2022-12-03T20:43:35.279Z,27.50
2022-12-03T20:46:09.457Z,20.55
2022-12-03T20:48:36.343Z,24.40
2022-12-03T20:51:04.979Z,25.48
2022-12-03T20:53:31.864Z,34.40
2022-12-03T20:55:58.946Z,25.23
2022-12-03T20:58:25.690Z,26.33
2022-12-03T21:00:52.566Z,30.60
2022-12-03T21:03:19.639Z,28.30
2022-12-03T21:05:46.422Z,24.98
2022-12-03T21:08:13.222Z,29.48
2022-12-03T21:10:46.391Z,27.48
2022-12-03T21:13:17.039Z,24.30
2022-12-03T21:15:45.032Z,23.52
2022-12-03T21:18:19.700Z,24.70
2022-12-03T21:20:47.265Z,20.08
2022-12-03T21:23:17.086Z,24.08
2022-12-03T21:25:43.811Z,24.88
2022-12-03T21:28:11.166Z,30.23
2022-12-03T21:30:40.135Z,22.98
2022-12-03T21:33:07.101Z,24.58
2022-12-03T21:35:36.979Z,29.42
2022-12-03T21:38:06.417Z,23.65
2022-12-03T21:40:33.159Z,33.30
2022-12-03T21:43:00.466Z,28.92
2022-12-03T21:45:27.209Z,34.85
2022-12-03T21:47:54.213Z,30.17
2022-12-03T21:50:21.011Z,25.48
2022-12-03T21:52:47.831Z,30.13
2022-12-03T21:55:14.837Z,22.38
2022-12-03T21:57:41.644Z,28.17
2022-12-03T22:00:10.219Z,32.20
2022-12-03T22:02:39.675Z,28.50
2022-12-03T22:05:08.233Z,30.63
2022-12-03T22:07:39.156Z,25.58
2022-12-03T22:10:07.304Z,26.42
2022-12-03T22:12:34.294Z,25.75
2022-12-03T22:15:01.060Z,30.30
2022-12-03T22:17:28.022Z,27.55
2022-12-03T22:19:55.024Z,31.55
2022-12-03T22:22:22.644Z,27.55
2022-12-03T22:24:52.458Z,32.58
2022-12-03T22:27:19.420Z,26.65
2022-12-03T22:29:46.269Z,28.98
2022-12-03T22:32:13.090Z,35.72
2022-12-03T22:34:41.500Z,29.77
2022-12-03T22:37:08.415Z,30.55
2022-12-03T22:39:35.206Z,26.25
2022-12-03T22:42:01.996Z,30.00
2022-12-03T22:44:28.843Z,26.73
2022-12-03T22:46:55.712Z,27.90
2022-12-03T22:49:22.580Z,28.70
2022-12-03T22:51:49.521Z,31.95
2022-12-03T22:54:20.933Z,30.13
2022-12-03T22:56:50.748Z,28.35
2022-12-03T22:59:17.605Z,26.65
2022-12-03T23:01:44.599Z,29.63
2022-12-03T23:04:11.729Z,30.63
2022-12-03T23:06:38.826Z,26.92
2022-12-03T23:09:06.367Z,31.02
2022-12-03T23:11:33.087Z,25.70
2022-12-03T23:14:00.081Z,27.85
2022-12-03T23:16:29.106Z,28.08
2022-12-03T23:18:58.105Z,31.98
2022-12-03T23:21:29.973Z,31.10
2022-12-03T23:24:00.882Z,31.48
2022-12-03T23:26:27.753Z,31.10
2022-12-03T23:28:54.752Z,23.73
2022-12-03T23:31:21.770Z,23.30
2022-12-03T23:33:48.758Z,27.08
2022-12-03T23:36:15.672Z,31.35
2022-12-03T23:38:42.476Z,26.25
2022-12-03T23:41:11.544Z,29.63
2022-12-03T23:43:38.705Z,26.77
2022-12-03T23:46:06.707Z,31.90
2022-12-03T23:48:33.522Z,26.08
2022-12-03T23:51:04.506Z,34.67
2022-12-03T23:53:31.219Z,27.38
2022-12-03T23:55:58.018Z,28.13
2022-12-03T23:58:24.761Z,32.47
